sensor_id;sensor_type;location;lat;lon;timestamp;temperature;humidity
10883;DHT22;5494;51.796;10.952;2023-05-10T00:01:34;13.20;99.90
10883;DHT22;5494;51.796;10.952;2023-05-10T00:04:03;13.20;99.90
10883;DHT22;5494;51.796;10.952;2023-05-10T00:06:32;13.20;99.90
10883;DHT22;5494;51.796;10.952;2023-05-10T00:09:00;13.20;99.90
10883;DHT22;5494;51.796;10.952;2023-05-10T00:11:28;13.30;99.90
10883;DHT22;5494;51.796;10.952;2023-05-10T00:13:56;13.30;99.90
10883;DHT22;5494;51.796;10.952;2023-05-10T00:16:24;13.30;99.90
10883;DHT22;5494;51.796;10.952;2023-05-10T00:18:52;13.30;99.90
10883;DHT22;5494;51.796;10.952;2023-05-10T00:21:20;13.30;99.90
10883;DHT22;5494;51.796;10.952;2023-05-10T00:23:49;13.30;99.90
10883;DHT22;5494;51.796;10.952;2023-05-10T00:26:17;13.30;99.90
10883;DHT22;5494;51.796;10.952;2023-05-10T00:28:50;13.30;99.90
10883;DHT22;5494;51.796;10.952;2023-05-10T00:31:18;13.30;99.90
10883;DHT22;5494;51.796;10.952;2023-05-10T00:33:47;13.30;99.90
10883;DHT22;5494;51.796;10.952;2023-05-10T00:36:15;13.30;99.90
10883;DHT22;5494;51.796;10.952;2023-05-10T00:38:42;13.40;99.90
10883;DHT22;5494;51.796;10.952;2023-05-10T00:41:12;13.40;99.90
10883;DHT22;5494;51.796;10.952;2023-05-10T00:43:40;13.50;99.90
10883;DHT22;5494;51.796;10.952;2023-05-10T00:46:08;13.50;99.90
10883;DHT22;5494;51.796;10.952;2023-05-10T00:48:37;13.40;99.90
10883;DHT22;5494;51.796;10.952;2023-05-10T00:51:05;13.40;99.90
10883;DHT22;5494;51.796;10.952;2023-05-10T00:53:34;13.40;99.90
10883;DHT22;5494;51.796;10.952;2023-05-10T00:56:03;13.40;99.90
10883;DHT22;5494;51.796;10.952;2023-05-10T00:58:33;13.50;99.90
10883;DHT22;5494;51.796;10.952;2023-05-10T01:01:01;13.50;99.90
10883;DHT22;5494;51.796;10.952;2023-05-10T01:03:29;13.50;99.90
10883;DHT22;5494;51.796;10.952;2023-05-10T01:05:58;13.50;99.90
10883;DHT22;5494;51.796;10.952;2023-05-10T01:08:26;13.50;99.90
10883;DHT22;5494;51.796;10.952;2023-05-10T01:10:55;13.50;99.90
10883;DHT22;5494;51.796;10.952;2023-05-10T01:13:35;13.50;99.90
10883;DHT22;5494;51.796;10.952;2023-05-10T01:16:06;13.50;99.90
10883;DHT22;5494;51.796;10.952;2023-05-10T01:18:37;13.50;99.90
10883;DHT22;5494;51.796;10.952;2023-05-10T01:21:15;13.50;99.90
10883;DHT22;5494;51.796;10.952;2023-05-10T01:24:19;13.50;99.90
10883;DHT22;5494;51.796;10.952;2023-05-10T01:27:22;13.50;99.90
10883;DHT22;5494;51.796;10.952;2023-05-10T01:30:25;13.40;99.90
10883;DHT22;5494;51.796;10.952;2023-05-10T01:33:18;13.40;99.90
10883;DHT22;5494;51.796;10.952;2023-05-10T01:35:54;13.30;99.90
10883;DHT22;5494;51.796;10.952;2023-05-10T01:38:33;13.30;99.90
10883;DHT22;5494;51.796;10.952;2023-05-10T01:41:16;13.30;99.90
10883;DHT22;5494;51.796;10.952;2023-05-10T01:43:53;13.30;99.90
10883;DHT22;5494;51.796;10.952;2023-05-10T01:46:35;13.30;99.90
10883;DHT22;5494;51.796;10.952;2023-05-10T01:49:09;13.30;99.90
10883;DHT22;5494;51.796;10.952;2023-05-10T01:51:44;13.20;99.90
10883;DHT22;5494;51.796;10.952;2023-05-10T01:54:20;13.30;99.90
10883;DHT22;5494;51.796;10.952;2023-05-10T01:56:55;13.30;99.90
10883;DHT22;5494;51.796;10.952;2023-05-10T01:59:30;13.30;99.90
10883;DHT22;5494;51.796;10.952;2023-05-10T02:02:06;13.30;99.90
10883;DHT22;5494;51.796;10.952;2023-05-10T02:04:40;13.30;99.90
10883;DHT22;5494;51.796;10.952;2023-05-10T02:07:09;13.30;99.90
10883;DHT22;5494;51.796;10.952;2023-05-10T02:09:41;13.30;99.90
10883;DHT22;5494;51.796;10.952;2023-05-10T02:12:14;13.30;99.90
10883;DHT22;5494;51.796;10.952;2023-05-10T02:14:44;13.30;99.90
10883;DHT22;5494;51.796;10.952;2023-05-10T02:17:15;13.30;99.90
10883;DHT22;5494;51.796;10.952;2023-05-10T02:19:47;13.30;99.90
10883;DHT22;5494;51.796;10.952;2023-05-10T02:22:16;13.40;99.90
10883;DHT22;5494;51.796;10.952;2023-05-10T02:24:47;13.40;99.90
10883;DHT22;5494;51.796;10.952;2023-05-10T02:27:17;14.00;99.90
10883;DHT22;5494;51.796;10.952;2023-05-10T02:29:48;13.40;99.90
10883;DHT22;5494;51.796;10.952;2023-05-10T02:32:17;13.30;99.90
10883;DHT22;5494;51.796;10.952;2023-05-10T02:34:48;13.40;99.90
10883;DHT22;5494;51.796;10.952;2023-05-10T02:37:19;13.40;99.90
10883;DHT22;5494;51.796;10.952;2023-05-10T02:39:49;13.40;99.90
10883;DHT22;5494;51.796;10.952;2023-05-10T02:42:21;13.30;99.90
10883;DHT22;5494;51.796;10.952;2023-05-10T02:45:00;13.40;99.90
10883;DHT22;5494;51.796;10.952;2023-05-10T02:47:29;13.50;99.90
10883;DHT22;5494;51.796;10.952;2023-05-10T02:49:59;13.50;99.90
10883;DHT22;5494;51.796;10.952;2023-05-10T02:52:30;13.50;99.90
10883;DHT22;5494;51.796;10.952;2023-05-10T02:55:09;13.40;99.90
10883;DHT22;5494;51.796;10.952;2023-05-10T02:57:43;13.40;99.90
10883;DHT22;5494;51.796;10.952;2023-05-10T03:00:16;13.50;99.90
10883;DHT22;5494;51.796;10.952;2023-05-10T03:02:44;13.40;99.90
10883;DHT22;5494;51.796;10.952;2023-05-10T03:05:14;13.40;99.90
10883;DHT22;5494;51.796;10.952;2023-05-10T03:07:42;13.40;99.90
10883;DHT22;5494;51.796;10.952;2023-05-10T03:10:11;13.30;99.90
10883;DHT22;5494;51.796;10.952;2023-05-10T03:12:52;13.20;99.90
10883;DHT22;5494;51.796;10.952;2023-05-10T03:15:34;13.20;99.90
10883;DHT22;5494;51.796;10.952;2023-05-10T03:18:12;13.10;99.90
10883;DHT22;5494;51.796;10.952;2023-05-10T03:20:48;13.00;99.90
10883;DHT22;5494;51.796;10.952;2023-05-10T03:23:22;12.90;99.90
10883;DHT22;5494;51.796;10.952;2023-05-10T03:25:54;13.00;99.90
10883;DHT22;5494;51.796;10.952;2023-05-10T03:28:26;13.10;99.90
10883;DHT22;5494;51.796;10.952;2023-05-10T03:30:55;13.10;99.90
10883;DHT22;5494;51.796;10.952;2023-05-10T03:33:24;13.20;99.90
10883;DHT22;5494;51.796;10.952;2023-05-10T03:35:53;13.40;99.90
10883;DHT22;5494;51.796;10.952;2023-05-10T03:38:21;13.60;99.90
10883;DHT22;5494;51.796;10.952;2023-05-10T03:40:49;13.60;99.90
10883;DHT22;5494;51.796;10.952;2023-05-10T03:43:17;13.60;99.90
10883;DHT22;5494;51.796;10.952;2023-05-10T03:45:46;13.80;99.90
10883;DHT22;5494;51.796;10.952;2023-05-10T03:48:13;14.00;99.90
10883;DHT22;5494;51.796;10.952;2023-05-10T03:50:42;14.10;99.90
10883;DHT22;5494;51.796;10.952;2023-05-10T03:53:11;14.10;99.90
10883;DHT22;5494;51.796;10.952;2023-05-10T03:55:39;14.20;99.90
10883;DHT22;5494;51.796;10.952;2023-05-10T03:58:10;14.30;99.90
10883;DHT22;5494;51.796;10.952;2023-05-10T04:00:39;15.20;99.90
10883;DHT22;5494;51.796;10.952;2023-05-10T04:03:10;14.40;99.90
10883;DHT22;5494;51.796;10.952;2023-05-10T04:05:39;14.50;99.90
10883;DHT22;5494;51.796;10.952;2023-05-10T04:08:07;14.60;99.90
10883;DHT22;5494;51.796;10.952;2023-05-10T04:10:37;14.60;99.90
10883;DHT22;5494;51.796;10.952;2023-05-10T04:13:05;14.60;99.90
10883;DHT22;5494;51.796;10.952;2023-05-10T04:15:33;14.60;99.90
10883;DHT22;5494;51.796;10.952;2023-05-10T04:18:02;14.70;99.90
10883;DHT22;5494;51.796;10.952;2023-05-10T04:20:32;14.70;99.90
10883;DHT22;5494;51.796;10.952;2023-05-10T04:23:00;14.60;99.90
10883;DHT22;5494;51.796;10.952;2023-05-10T04:25:28;14.60;99.90
10883;DHT22;5494;51.796;10.952;2023-05-10T04:27:58;14.50;99.90
10883;DHT22;5494;51.796;10.952;2023-05-10T04:30:26;14.50;99.90
10883;DHT22;5494;51.796;10.952;2023-05-10T04:32:55;14.40;99.90
10883;DHT22;5494;51.796;10.952;2023-05-10T04:35:26;14.40;99.90
10883;DHT22;5494;51.796;10.952;2023-05-10T04:37:54;14.40;99.90
10883;DHT22;5494;51.796;10.952;2023-05-10T04:40:22;14.30;99.90
10883;DHT22;5494;51.796;10.952;2023-05-10T04:42:50;14.30;99.90
10883;DHT22;5494;51.796;10.952;2023-05-10T04:45:19;14.30;99.90
10883;DHT22;5494;51.796;10.952;2023-05-10T04:47:48;14.30;99.90
10883;DHT22;5494;51.796;10.952;2023-05-10T04:50:17;14.30;99.90
10883;DHT22;5494;51.796;10.952;2023-05-10T04:52:45;14.30;99.90
10883;DHT22;5494;51.796;10.952;2023-05-10T04:55:12;14.30;99.90
10883;DHT22;5494;51.796;10.952;2023-05-10T04:57:41;14.30;99.90
10883;DHT22;5494;51.796;10.952;2023-05-10T05:00:10;14.40;99.90
10883;DHT22;5494;51.796;10.952;2023-05-10T05:02:42;14.40;99.90
10883;DHT22;5494;51.796;10.952;2023-05-10T05:05:11;14.40;99.90
10883;DHT22;5494;51.796;10.952;2023-05-10T05:07:39;14.40;99.90
10883;DHT22;5494;51.796;10.952;2023-05-10T05:10:08;14.40;99.90
10883;DHT22;5494;51.796;10.952;2023-05-10T05:12:36;14.50;99.90
10883;DHT22;5494;51.796;10.952;2023-05-10T05:15:05;14.50;99.90
10883;DHT22;5494;51.796;10.952;2023-05-10T05:17:35;14.50;99.90
10883;DHT22;5494;51.796;10.952;2023-05-10T05:20:06;14.60;99.90
10883;DHT22;5494;51.796;10.952;2023-05-10T05:22:36;14.60;99.90
10883;DHT22;5494;51.796;10.952;2023-05-10T05:25:05;14.60;99.90
10883;DHT22;5494;51.796;10.952;2023-05-10T05:27:34;14.70;99.90
10883;DHT22;5494;51.796;10.952;2023-05-10T05:30:02;14.60;99.90
10883;DHT22;5494;51.796;10.952;2023-05-10T05:32:31;14.70;99.90
10883;DHT22;5494;51.796;10.952;2023-05-10T05:34:59;14.80;99.90
10883;DHT22;5494;51.796;10.952;2023-05-10T05:37:28;14.90;99.90
10883;DHT22;5494;51.796;10.952;2023-05-10T05:39:56;15.10;99.90
10883;DHT22;5494;51.796;10.952;2023-05-10T05:42:24;15.10;99.90
10883;DHT22;5494;51.796;10.952;2023-05-10T05:44:52;15.30;99.90
10883;DHT22;5494;51.796;10.952;2023-05-10T05:47:20;15.40;99.90
10883;DHT22;5494;51.796;10.952;2023-05-10T05:49:48;15.60;99.90
10883;DHT22;5494;51.796;10.952;2023-05-10T05:52:16;15.70;99.90
10883;DHT22;5494;51.796;10.952;2023-05-10T05:54:46;15.90;99.90
10883;DHT22;5494;51.796;10.952;2023-05-10T05:57:14;16.10;99.90
10883;DHT22;5494;51.796;10.952;2023-05-10T05:59:42;16.30;99.90
10883;DHT22;5494;51.796;10.952;2023-05-10T06:02:10;16.20;99.90
10883;DHT22;5494;51.796;10.952;2023-05-10T06:04:38;16.20;99.90
10883;DHT22;5494;51.796;10.952;2023-05-10T06:07:10;16.20;99.90
10883;DHT22;5494;51.796;10.952;2023-05-10T06:09:38;16.20;99.90
10883;DHT22;5494;51.796;10.952;2023-05-10T06:12:07;16.30;99.90
10883;DHT22;5494;51.796;10.952;2023-05-10T06:14:35;16.30;99.90
10883;DHT22;5494;51.796;10.952;2023-05-10T06:17:03;16.40;99.90
10883;DHT22;5494;51.796;10.952;2023-05-10T06:19:31;16.40;99.90
10883;DHT22;5494;51.796;10.952;2023-05-10T06:21:59;16.30;99.90
10883;DHT22;5494;51.796;10.952;2023-05-10T06:24:28;16.20;99.90
10883;DHT22;5494;51.796;10.952;2023-05-10T06:26:56;16.00;99.90
10883;DHT22;5494;51.796;10.952;2023-05-10T06:29:28;15.90;99.90
10883;DHT22;5494;51.796;10.952;2023-05-10T06:31:56;15.80;99.90
10883;DHT22;5494;51.796;10.952;2023-05-10T06:34:24;15.70;99.90
10883;DHT22;5494;51.796;10.952;2023-05-10T06:36:53;15.60;99.90
10883;DHT22;5494;51.796;10.952;2023-05-10T06:39:20;15.60;99.90
10883;DHT22;5494;51.796;10.952;2023-05-10T06:41:48;15.50;99.90
10883;DHT22;5494;51.796;10.952;2023-05-10T06:44:18;15.50;99.90
10883;DHT22;5494;51.796;10.952;2023-05-10T06:46:47;15.50;99.90
10883;DHT22;5494;51.796;10.952;2023-05-10T06:49:16;15.50;99.90
10883;DHT22;5494;51.796;10.952;2023-05-10T06:51:45;15.50;99.90
10883;DHT22;5494;51.796;10.952;2023-05-10T06:54:13;15.50;99.90
10883;DHT22;5494;51.796;10.952;2023-05-10T06:56:41;15.60;99.90
10883;DHT22;5494;51.796;10.952;2023-05-10T06:59:09;15.70;99.90
10883;DHT22;5494;51.796;10.952;2023-05-10T07:01:37;15.80;99.90
10883;DHT22;5494;51.796;10.952;2023-05-10T07:04:06;15.90;99.90
10883;DHT22;5494;51.796;10.952;2023-05-10T07:06:34;15.90;99.90
10883;DHT22;5494;51.796;10.952;2023-05-10T07:09:02;16.00;99.90
10883;DHT22;5494;51.796;10.952;2023-05-10T07:11:31;16.00;99.90
10883;DHT22;5494;51.796;10.952;2023-05-10T07:13:59;16.00;99.90
10883;DHT22;5494;51.796;10.952;2023-05-10T07:16:27;16.00;99.90
10883;DHT22;5494;51.796;10.952;2023-05-10T07:18:55;15.90;99.90
10883;DHT22;5494;51.796;10.952;2023-05-10T07:21:24;15.90;99.90
10883;DHT22;5494;51.796;10.952;2023-05-10T07:23:55;15.70;99.90
10883;DHT22;5494;51.796;10.952;2023-05-10T07:26:23;15.70;99.90
10883;DHT22;5494;51.796;10.952;2023-05-10T07:28:51;15.70;99.90
10883;DHT22;5494;51.796;10.952;2023-05-10T07:31:19;15.80;99.90
10883;DHT22;5494;51.796;10.952;2023-05-10T07:33:48;15.70;99.90
10883;DHT22;5494;51.796;10.952;2023-05-10T07:36:15;15.70;99.90
10883;DHT22;5494;51.796;10.952;2023-05-10T07:38:45;15.60;99.90
10883;DHT22;5494;51.796;10.952;2023-05-10T07:41:13;15.70;99.90
10883;DHT22;5494;51.796;10.952;2023-05-10T07:43:41;15.60;99.90
10883;DHT22;5494;51.796;10.952;2023-05-10T07:46:09;15.60;99.90
10883;DHT22;5494;51.796;10.952;2023-05-10T07:48:37;15.60;99.90
10883;DHT22;5494;51.796;10.952;2023-05-10T07:51:05;15.60;99.90
10883;DHT22;5494;51.796;10.952;2023-05-10T07:53:36;15.50;99.90
10883;DHT22;5494;51.796;10.952;2023-05-10T07:58:58;15.40;99.90
10883;DHT22;5494;51.796;10.952;2023-05-10T08:01:31;15.40;99.90
10883;DHT22;5494;51.796;10.952;2023-05-10T08:03:59;15.30;99.90
10883;DHT22;5494;51.796;10.952;2023-05-10T08:06:28;15.20;99.90
10883;DHT22;5494;51.796;10.952;2023-05-10T08:08:57;15.10;99.90
10883;DHT22;5494;51.796;10.952;2023-05-10T08:11:25;14.90;99.90
10883;DHT22;5494;51.796;10.952;2023-05-10T08:13:54;14.90;99.90
10883;DHT22;5494;51.796;10.952;2023-05-10T08:16:23;15.00;99.90
10883;DHT22;5494;51.796;10.952;2023-05-10T08:18:52;15.00;99.90
10883;DHT22;5494;51.796;10.952;2023-05-10T08:21:22;15.10;99.90
10883;DHT22;5494;51.796;10.952;2023-05-10T08:23:49;15.10;99.90
10883;DHT22;5494;51.796;10.952;2023-05-10T08:26:17;15.10;99.90
10883;DHT22;5494;51.796;10.952;2023-05-10T08:28:47;15.20;99.90
10883;DHT22;5494;51.796;10.952;2023-05-10T08:31:15;15.50;99.90
10883;DHT22;5494;51.796;10.952;2023-05-10T08:33:44;15.60;99.90
10883;DHT22;5494;51.796;10.952;2023-05-10T08:36:12;15.60;99.90
10883;DHT22;5494;51.796;10.952;2023-05-10T08:38:46;15.60;99.90
10883;DHT22;5494;51.796;10.952;2023-05-10T08:41:16;15.70;99.90
10883;DHT22;5494;51.796;10.952;2023-05-10T08:43:45;15.80;99.90
10883;DHT22;5494;51.796;10.952;2023-05-10T08:46:16;15.80;99.90
10883;DHT22;5494;51.796;10.952;2023-05-10T08:48:47;15.90;99.90
10883;DHT22;5494;51.796;10.952;2023-05-10T08:51:19;15.90;99.90
10883;DHT22;5494;51.796;10.952;2023-05-10T08:53:53;16.10;99.90
10883;DHT22;5494;51.796;10.952;2023-05-10T08:56:22;16.10;99.90
10883;DHT22;5494;51.796;10.952;2023-05-10T08:58:50;16.10;99.90
10883;DHT22;5494;51.796;10.952;2023-05-10T09:01:19;16.20;99.90
10883;DHT22;5494;51.796;10.952;2023-05-10T09:03:50;16.30;99.90
10883;DHT22;5494;51.796;10.952;2023-05-10T09:06:19;16.40;99.90
10883;DHT22;5494;51.796;10.952;2023-05-10T09:08:47;16.50;99.90
10883;DHT22;5494;51.796;10.952;2023-05-10T09:11:16;16.60;99.90
10883;DHT22;5494;51.796;10.952;2023-05-10T09:13:45;16.80;99.90
10883;DHT22;5494;51.796;10.952;2023-05-10T09:16:15;17.00;99.90
10883;DHT22;5494;51.796;10.952;2023-05-10T09:18:49;17.20;99.90
10883;DHT22;5494;51.796;10.952;2023-05-10T09:21:18;17.40;99.90
10883;DHT22;5494;51.796;10.952;2023-05-10T09:23:47;17.50;99.90
10883;DHT22;5494;51.796;10.952;2023-05-10T09:26:16;17.50;99.90
10883;DHT22;5494;51.796;10.952;2023-05-10T09:28:53;17.60;99.90
10883;DHT22;5494;51.796;10.952;2023-05-10T09:31:22;17.60;99.90
10883;DHT22;5494;51.796;10.952;2023-05-10T09:33:53;17.50;99.90
10883;DHT22;5494;51.796;10.952;2023-05-10T09:36:21;17.50;99.90
10883;DHT22;5494;51.796;10.952;2023-05-10T09:38:50;17.50;99.90
10883;DHT22;5494;51.796;10.952;2023-05-10T09:41:20;17.50;99.90
10883;DHT22;5494;51.796;10.952;2023-05-10T09:43:49;17.50;99.90
10883;DHT22;5494;51.796;10.952;2023-05-10T09:46:18;17.50;99.90
10883;DHT22;5494;51.796;10.952;2023-05-10T09:48:47;17.70;99.90
10883;DHT22;5494;51.796;10.952;2023-05-10T09:51:20;17.80;99.90
10883;DHT22;5494;51.796;10.952;2023-05-10T09:54:09;18.00;99.90
10883;DHT22;5494;51.796;10.952;2023-05-10T09:56:38;18.10;99.90
10883;DHT22;5494;51.796;10.952;2023-05-10T09:59:10;18.20;99.90
10883;DHT22;5494;51.796;10.952;2023-05-10T10:01:39;18.20;99.90
10883;DHT22;5494;51.796;10.952;2023-05-10T10:04:09;18.20;99.90
10883;DHT22;5494;51.796;10.952;2023-05-10T10:06:40;18.20;99.90
10883;DHT22;5494;51.796;10.952;2023-05-10T10:09:08;18.00;99.90
10883;DHT22;5494;51.796;10.952;2023-05-10T10:11:38;17.80;99.90
10883;DHT22;5494;51.796;10.952;2023-05-10T10:14:07;17.60;99.90
10883;DHT22;5494;51.796;10.952;2023-05-10T10:16:36;17.50;99.90
10883;DHT22;5494;51.796;10.952;2023-05-10T10:19:18;17.40;99.90
10883;DHT22;5494;51.796;10.952;2023-05-10T10:21:49;17.20;99.90
10883;DHT22;5494;51.796;10.952;2023-05-10T10:24:17;17.20;99.90
10883;DHT22;5494;51.796;10.952;2023-05-10T10:26:46;17.10;99.90
10883;DHT22;5494;51.796;10.952;2023-05-10T10:29:23;17.00;99.90
10883;DHT22;5494;51.796;10.952;2023-05-10T10:32:06;17.00;99.90
10883;DHT22;5494;51.796;10.952;2023-05-10T10:34:40;17.00;99.90
10883;DHT22;5494;51.796;10.952;2023-05-10T10:37:09;17.00;99.90
10883;DHT22;5494;51.796;10.952;2023-05-10T10:39:40;16.90;99.90
10883;DHT22;5494;51.796;10.952;2023-05-10T10:42:08;16.80;99.90
10883;DHT22;5494;51.796;10.952;2023-05-10T10:44:37;16.70;99.90
10883;DHT22;5494;51.796;10.952;2023-05-10T10:47:20;16.40;99.90
10883;DHT22;5494;51.796;10.952;2023-05-10T10:50:03;16.30;99.90
10883;DHT22;5494;51.796;10.952;2023-05-10T10:52:34;16.10;99.90
10883;DHT22;5494;51.796;10.952;2023-05-10T10:55:05;16.10;99.90
10883;DHT22;5494;51.796;10.952;2023-05-10T10:57:44;16.10;99.90
10883;DHT22;5494;51.796;10.952;2023-05-10T11:00:27;16.00;99.90
10883;DHT22;5494;51.796;10.952;2023-05-10T11:02:59;16.10;99.90
10883;DHT22;5494;51.796;10.952;2023-05-10T11:05:40;16.30;99.90
10883;DHT22;5494;51.796;10.952;2023-05-10T11:08:13;16.40;99.90
10883;DHT22;5494;51.796;10.952;2023-05-10T11:10:54;16.10;99.90
10883;DHT22;5494;51.796;10.952;2023-05-10T11:13:32;15.90;99.90
10883;DHT22;5494;51.796;10.952;2023-05-10T11:16:16;15.70;99.90
10883;DHT22;5494;51.796;10.952;2023-05-10T11:18:58;15.50;99.90
10883;DHT22;5494;51.796;10.952;2023-05-10T11:21:29;15.30;99.90
10883;DHT22;5494;51.796;10.952;2023-05-10T11:24:00;15.30;99.90
10883;DHT22;5494;51.796;10.952;2023-05-10T11:26:35;15.30;99.90
10883;DHT22;5494;51.796;10.952;2023-05-10T11:29:03;15.30;99.90
10883;DHT22;5494;51.796;10.952;2023-05-10T11:31:32;15.30;99.90
10883;DHT22;5494;51.796;10.952;2023-05-10T11:34:01;15.30;99.90
10883;DHT22;5494;51.796;10.952;2023-05-10T11:36:32;15.40;99.90
10883;DHT22;5494;51.796;10.952;2023-05-10T11:39:03;15.40;99.90
10883;DHT22;5494;51.796;10.952;2023-05-10T11:41:32;15.50;99.90
10883;DHT22;5494;51.796;10.952;2023-05-10T11:44:01;15.60;99.90
10883;DHT22;5494;51.796;10.952;2023-05-10T11:46:30;15.60;99.90
10883;DHT22;5494;51.796;10.952;2023-05-10T11:48:59;15.60;99.90
10883;DHT22;5494;51.796;10.952;2023-05-10T11:51:34;15.70;99.90
10883;DHT22;5494;51.796;10.952;2023-05-10T11:54:07;15.80;99.90
10883;DHT22;5494;51.796;10.952;2023-05-10T11:56:36;15.90;99.90
10883;DHT22;5494;51.796;10.952;2023-05-10T11:59:05;16.00;99.90
10883;DHT22;5494;51.796;10.952;2023-05-10T12:01:33;17.00;99.90
10883;DHT22;5494;51.796;10.952;2023-05-10T12:04:01;16.10;99.90
10883;DHT22;5494;51.796;10.952;2023-05-10T12:06:32;16.30;99.90
10883;DHT22;5494;51.796;10.952;2023-05-10T12:09:07;16.50;99.90
10883;DHT22;5494;51.796;10.952;2023-05-10T12:11:38;16.80;99.90
10883;DHT22;5494;51.796;10.952;2023-05-10T12:14:09;17.30;99.90
10883;DHT22;5494;51.796;10.952;2023-05-10T12:16:38;17.80;99.90
10883;DHT22;5494;51.796;10.952;2023-05-10T12:19:06;17.90;99.90
10883;DHT22;5494;51.796;10.952;2023-05-10T12:21:34;18.10;99.90
10883;DHT22;5494;51.796;10.952;2023-05-10T12:24:04;18.30;99.90
10883;DHT22;5494;51.796;10.952;2023-05-10T12:26:35;18.30;99.90
10883;DHT22;5494;51.796;10.952;2023-05-10T12:29:13;18.40;99.90
10883;DHT22;5494;51.796;10.952;2023-05-10T12:31:52;18.50;99.90
10883;DHT22;5494;51.796;10.952;2023-05-10T12:34:31;18.80;99.90
10883;DHT22;5494;51.796;10.952;2023-05-10T12:37:02;18.90;99.90
10883;DHT22;5494;51.796;10.952;2023-05-10T12:39:40;18.70;99.90
10883;DHT22;5494;51.796;10.952;2023-05-10T12:42:11;18.60;99.90
10883;DHT22;5494;51.796;10.952;2023-05-10T12:44:39;18.60;99.90
10883;DHT22;5494;51.796;10.952;2023-05-10T12:47:07;18.70;99.90
10883;DHT22;5494;51.796;10.952;2023-05-10T12:49:38;18.70;99.90
10883;DHT22;5494;51.796;10.952;2023-05-10T12:52:06;18.30;99.90
10883;DHT22;5494;51.796;10.952;2023-05-10T12:54:34;18.00;99.90
10883;DHT22;5494;51.796;10.952;2023-05-10T12:57:02;17.60;99.90
10883;DHT22;5494;51.796;10.952;2023-05-10T12:59:32;17.40;99.90
10883;DHT22;5494;51.796;10.952;2023-05-10T13:02:03;17.30;99.90
10883;DHT22;5494;51.796;10.952;2023-05-10T13:04:31;17.40;99.90
10883;DHT22;5494;51.796;10.952;2023-05-10T13:07:02;17.30;99.90
10883;DHT22;5494;51.796;10.952;2023-05-10T13:09:30;17.30;99.90
10883;DHT22;5494;51.796;10.952;2023-05-10T13:12:04;17.10;99.90
10883;DHT22;5494;51.796;10.952;2023-05-10T13:14:37;16.80;99.90
10883;DHT22;5494;51.796;10.952;2023-05-10T13:17:09;16.70;99.90
10883;DHT22;5494;51.796;10.952;2023-05-10T13:19:37;16.50;99.90
10883;DHT22;5494;51.796;10.952;2023-05-10T13:22:05;16.50;99.90
10883;DHT22;5494;51.796;10.952;2023-05-10T13:24:33;16.60;99.90
10883;DHT22;5494;51.796;10.952;2023-05-10T13:27:01;16.60;99.90
10883;DHT22;5494;51.796;10.952;2023-05-10T13:29:29;16.70;99.90
10883;DHT22;5494;51.796;10.952;2023-05-10T13:31:58;16.80;99.90
10883;DHT22;5494;51.796;10.952;2023-05-10T13:34:26;16.90;99.90
10883;DHT22;5494;51.796;10.952;2023-05-10T13:36:54;17.10;99.90
10883;DHT22;5494;51.796;10.952;2023-05-10T13:39:23;17.30;99.90
10883;DHT22;5494;51.796;10.952;2023-05-10T13:41:51;17.40;99.90
10883;DHT22;5494;51.796;10.952;2023-05-10T13:44:21;17.50;99.90
10883;DHT22;5494;51.796;10.952;2023-05-10T13:46:49;17.60;99.90
10883;DHT22;5494;51.796;10.952;2023-05-10T13:49:18;17.60;99.90
10883;DHT22;5494;51.796;10.952;2023-05-10T13:51:46;17.50;99.90
10883;DHT22;5494;51.796;10.952;2023-05-10T13:54:14;17.40;99.90
10883;DHT22;5494;51.796;10.952;2023-05-10T13:56:44;17.50;99.90
10883;DHT22;5494;51.796;10.952;2023-05-10T13:59:11;17.70;99.90
10883;DHT22;5494;51.796;10.952;2023-05-10T14:01:41;18.00;99.90
10883;DHT22;5494;51.796;10.952;2023-05-10T14:04:09;18.30;99.90
10883;DHT22;5494;51.796;10.952;2023-05-10T14:06:38;18.70;99.90
10883;DHT22;5494;51.796;10.952;2023-05-10T14:09:07;18.80;99.90
10883;DHT22;5494;51.796;10.952;2023-05-10T14:11:35;18.90;99.90
10883;DHT22;5494;51.796;10.952;2023-05-10T14:14:03;18.70;99.90
10883;DHT22;5494;51.796;10.952;2023-05-10T14:16:31;18.40;99.90
10883;DHT22;5494;51.796;10.952;2023-05-10T14:18:59;18.10;99.90
10883;DHT22;5494;51.796;10.952;2023-05-10T14:21:28;18.00;99.90
10883;DHT22;5494;51.796;10.952;2023-05-10T14:23:59;18.00;99.90
10883;DHT22;5494;51.796;10.952;2023-05-10T14:26:30;18.20;99.90
10883;DHT22;5494;51.796;10.952;2023-05-10T14:28:58;18.60;99.90
10883;DHT22;5494;51.796;10.952;2023-05-10T14:31:26;19.00;99.90
10883;DHT22;5494;51.796;10.952;2023-05-10T14:33:56;19.20;99.90
10883;DHT22;5494;51.796;10.952;2023-05-10T14:36:25;19.00;99.90
10883;DHT22;5494;51.796;10.952;2023-05-10T14:38:53;19.10;99.90
10883;DHT22;5494;51.796;10.952;2023-05-10T14:41:23;19.10;99.90
10883;DHT22;5494;51.796;10.952;2023-05-10T14:43:51;19.00;99.90
10883;DHT22;5494;51.796;10.952;2023-05-10T14:46:19;18.90;99.90
10883;DHT22;5494;51.796;10.952;2023-05-10T14:48:47;19.10;99.90
10883;DHT22;5494;51.796;10.952;2023-05-10T14:51:15;19.40;99.90
10883;DHT22;5494;51.796;10.952;2023-05-10T14:53:43;19.40;99.90
10883;DHT22;5494;51.796;10.952;2023-05-10T14:56:11;19.40;99.90
10883;DHT22;5494;51.796;10.952;2023-05-10T14:58:40;19.30;99.90
10883;DHT22;5494;51.796;10.952;2023-05-10T15:01:08;19.10;99.90
10883;DHT22;5494;51.796;10.952;2023-05-10T15:03:37;19.00;99.90
10883;DHT22;5494;51.796;10.952;2023-05-10T15:06:07;18.90;99.90
10883;DHT22;5494;51.796;10.952;2023-05-10T15:08:35;18.90;99.90
10883;DHT22;5494;51.796;10.952;2023-05-10T15:11:03;18.90;99.90
10883;DHT22;5494;51.796;10.952;2023-05-10T15:13:31;18.60;99.90
10883;DHT22;5494;51.796;10.952;2023-05-10T15:16:01;18.40;99.90
10883;DHT22;5494;51.796;10.952;2023-05-10T15:18:29;18.40;99.90
10883;DHT22;5494;51.796;10.952;2023-05-10T15:20:57;18.40;99.90
10883;DHT22;5494;51.796;10.952;2023-05-10T15:23:25;18.50;99.90
10883;DHT22;5494;51.796;10.952;2023-05-10T15:25:53;18.20;99.90
10883;DHT22;5494;51.796;10.952;2023-05-10T15:28:22;17.80;99.90
10883;DHT22;5494;51.796;10.952;2023-05-10T15:30:50;17.90;99.90
10883;DHT22;5494;51.796;10.952;2023-05-10T15:33:22;18.10;99.90
10883;DHT22;5494;51.796;10.952;2023-05-10T15:35:51;18.10;99.90
10883;DHT22;5494;51.796;10.952;2023-05-10T15:38:20;18.10;99.90
10883;DHT22;5494;51.796;10.952;2023-05-10T15:40:48;18.30;99.90
10883;DHT22;5494;51.796;10.952;2023-05-10T15:43:16;18.30;99.90
10883;DHT22;5494;51.796;10.952;2023-05-10T15:45:43;18.10;99.90
10883;DHT22;5494;51.796;10.952;2023-05-10T15:48:12;18.00;99.90
10883;DHT22;5494;51.796;10.952;2023-05-10T15:50:41;18.00;99.90
10883;DHT22;5494;51.796;10.952;2023-05-10T15:53:09;18.10;99.90